SLSA4: ILLINOIS RIVER AT HIGHWAY 16 BRIDGE NR SILOAM SPRINGS 4SE

                                SHEF ID:       SLSA4     Illinois River at Hwy. 16 near S
STATION TYPE:

PRECIP STAGE RIV-FLOW BAT-LOAD
in ft cfs volt
Ccp-Rev Ccp-Rev Ccp-Rev Ccp-Rev
(America/Chicago)
04/25 00:00 0.00 10.00 3005 12.58
04/25 01:00 0.00 9.77 2765 12.54
04/25 02:00 0.00 9.60 2595 12.52
04/25 03:00 0.00 9.45 2450 12.50
04/25 04:00 0.00 9.29 2300 12.47
04/25 05:00 0.00 9.15 2172 12.46
04/25 06:00 0.00 9.05 2084 12.44
04/25 07:00 0.00 8.94 1989 12.42
04/25 08:00 0.00 8.88 1938 12.43
04/25 09:00 0.00 8.80 1871 12.59
04/25 10:00 0.00 8.73 1814 13.26
04/25 11:00 0.00 8.66 1757 13.56
04/25 12:00 0.00 8.61 1717 13.43
04/25 13:00 0.00 8.56 1665 13.11
04/25 14:00 0.00 8.49 1594 13.06
04/25 15:00 0.00 8.44 1545 12.98
04/25 16:00 0.00 8.38 1487 12.93
04/25 17:00 0.00 8.34 1449 12.88
04/25 18:00 0.00 8.31 1421 12.73
04/25 19:00 0.04 8.27 1385 12.67
04/25 20:00 0.05 8.24 1357 12.63
04/25 21:00 0.06 8.23 1348 12.59
04/25 22:00 0.05 8.25 1366 12.55
04/25 23:00 0.06 8.25 1366 12.53
Data processed at Sun 26Apr2026 04:14 GMT

NOTICE: If you are parsing this page

Please convert to using our Data API. Starting early 2026 we will be migrating to: https://water.usace.army.mil with modern pages rendered in JavaScript. When this migration completes you will no longer be able to scrape this page! CWMSDataAPI (CDA)

Timeseries IDs (TSIDs)

TSIDs used from left to right in the data table
SILS.Precip-Inc.Total.1Hour.1Hour.Ccp-Rev
SILS.Stage.Inst.1Hour.0.Ccp-Rev
SILS.Flow.Inst.1Hour.0.Ccp-Rev
SILS.Volt-Battery Load.Inst.1Hour.0.Ccp-Rev

                            

All information presented herein is the property of the government of the United States of America and may be revised or deleted at any time without prior notice. Dissemination of this information without the expressed written consent of the Public Affairs Office, Tulsa District U.S. Army Corps of Engineers is strictly prohibited. These data are gathered electronically and, as presented, have NOT undergone any form of quality control. These data are NOT guaranteed to be valid or correct.